createdAt,value
2022-10-22T00:00:08.811Z,100591.00
2022-10-22T00:02:35.781Z,100615.00
2022-10-22T00:05:02.646Z,100616.00
2022-10-22T00:07:29.431Z,100621.00
2022-10-22T00:09:56.189Z,100609.00
2022-10-22T00:12:22.954Z,100610.00
2022-10-22T00:14:49.740Z,100611.00
2022-10-22T00:17:17.288Z,100613.00
2022-10-22T00:19:44.661Z,100616.00
2022-10-22T00:22:12.382Z,100617.00
2022-10-22T00:24:40.006Z,100625.00
2022-10-22T00:27:14.389Z,100614.00
2022-10-22T00:29:41.233Z,100615.00
2022-10-22T00:32:07.946Z,100603.00
2022-10-22T00:34:34.757Z,100581.00
2022-10-22T00:37:01.554Z,100586.00
2022-10-22T00:39:29.371Z,100589.00
2022-10-22T00:41:57.714Z,100586.00
2022-10-22T00:45:11.159Z,100581.00
2022-10-22T00:47:49.103Z,100578.00
2022-10-22T00:50:34.626Z,100577.00
2022-10-22T00:53:06.372Z,100590.00
2022-10-22T00:55:33.750Z,100579.00
2022-10-22T00:58:03.671Z,100595.00
2022-10-22T01:00:31.260Z,100599.00
2022-10-22T01:02:58.315Z,100606.00
2022-10-22T01:05:31.218Z,100602.00
2022-10-22T01:07:58.238Z,100610.00
2022-10-22T01:10:51.773Z,100620.00
2022-10-22T01:13:36.810Z,100621.00
2022-10-22T01:16:14.601Z,100613.00
2022-10-22T01:19:11.916Z,100621.00
2022-10-22T01:22:12.175Z,100618.00
2022-10-22T01:25:15.037Z,100612.00
2022-10-22T01:28:19.030Z,100605.00
2022-10-22T01:30:50.234Z,100598.00
2022-10-22T01:33:21.291Z,100603.00
2022-10-22T01:35:48.630Z,100596.00
2022-10-22T01:38:22.307Z,100588.00
2022-10-22T01:40:51.076Z,100601.00
2022-10-22T01:43:17.829Z,100597.00
2022-10-22T01:45:54.058Z,100604.00
2022-10-22T01:48:49.692Z,100592.00
2022-10-22T01:51:59.579Z,100587.00
2022-10-22T01:54:46.892Z,100599.00
2022-10-22T01:58:19.044Z,100611.00
2022-10-22T02:01:31.494Z,100609.00
2022-10-22T02:04:46.311Z,100613.00
2022-10-22T02:07:19.052Z,100601.00
2022-10-22T02:09:47.938Z,100598.00
2022-10-22T02:12:17.821Z,100608.00
2022-10-22T02:14:46.688Z,100619.00
2022-10-22T02:17:19.950Z,100614.00
2022-10-22T02:20:16.769Z,100624.00
2022-10-22T02:22:43.983Z,100616.00
2022-10-22T02:25:11.959Z,100604.00
2022-10-22T02:27:49.157Z,100604.00
2022-10-22T02:30:21.164Z,100608.00
2022-10-22T02:33:11.896Z,100595.00
2022-10-22T02:35:41.696Z,100594.00
2022-10-22T02:38:10.371Z,100595.00
2022-10-22T02:40:37.865Z,100606.00
2022-10-22T02:43:06.146Z,100605.00
2022-10-22T02:45:34.634Z,100600.00
2022-10-22T02:48:02.949Z,100602.00
2022-10-22T02:50:29.777Z,100612.00
2022-10-22T02:52:56.702Z,100598.00
2022-10-22T02:55:23.510Z,100619.00
2022-10-22T02:57:50.214Z,100621.00
2022-10-22T03:00:17.249Z,100629.00
2022-10-22T03:02:45.005Z,100626.00
2022-10-22T03:05:11.701Z,100628.00
2022-10-22T03:07:38.595Z,100627.00
2022-10-22T03:10:06.356Z,100610.00
2022-10-22T03:12:33.062Z,100612.00
2022-10-22T03:14:59.981Z,100607.00
2022-10-22T03:17:26.787Z,100608.00
2022-10-22T03:19:53.535Z,100594.00
2022-10-22T03:22:26.770Z,100597.00
2022-10-22T03:25:00.115Z,100595.00
2022-10-22T03:27:29.465Z,100592.00
2022-10-22T03:29:57.973Z,100597.00
2022-10-22T03:32:24.743Z,100597.00
2022-10-22T03:34:51.563Z,100600.00
2022-10-22T03:37:18.911Z,100609.00
2022-10-22T03:39:46.392Z,100615.00
2022-10-22T03:42:13.586Z,100611.00
2022-10-22T03:44:40.837Z,100609.00
2022-10-22T03:47:07.789Z,100610.00
2022-10-22T03:49:34.543Z,100607.00
2022-10-22T03:52:11.090Z,100607.00
2022-10-22T03:57:10.768Z,100613.00
2022-10-22T03:59:45.891Z,100618.00
2022-10-22T04:02:14.021Z,100616.00
2022-10-22T04:04:40.847Z,100612.00
2022-10-22T04:07:09.408Z,100620.00
2022-10-22T04:09:36.933Z,100615.00
2022-10-22T04:12:06.493Z,100627.00
2022-10-22T04:14:33.961Z,100632.00
2022-10-22T04:17:00.794Z,100635.00
2022-10-22T04:19:27.617Z,100635.00
2022-10-22T04:21:54.387Z,100636.00
2022-10-22T04:24:21.674Z,100645.00
2022-10-22T04:26:48.429Z,100645.00
2022-10-22T04:29:16.356Z,100656.00
2022-10-22T04:31:43.616Z,100653.00
2022-10-22T04:34:10.311Z,100659.00
2022-10-22T04:36:37.299Z,100658.00
2022-10-22T04:39:04.518Z,100649.00
2022-10-22T04:41:39.564Z,100647.00
2022-10-22T04:44:10.935Z,100644.00
2022-10-22T04:46:42.746Z,100642.00
2022-10-22T04:49:09.570Z,100641.00
2022-10-22T04:51:36.341Z,100634.00
2022-10-22T04:54:03.155Z,100641.00
2022-10-22T04:56:31.897Z,100643.00
2022-10-22T04:59:03.665Z,100637.00
2022-10-22T05:01:42.714Z,100637.00
2022-10-22T05:04:17.155Z,100641.00
2022-10-22T05:06:44.630Z,100636.00
2022-10-22T05:09:19.902Z,100635.00
2022-10-22T05:11:51.813Z,100635.00
2022-10-22T05:14:23.012Z,100624.00
2022-10-22T05:16:51.109Z,100629.00
2022-10-22T05:19:30.951Z,100643.00
2022-10-22T05:22:03.680Z,100637.00
2022-10-22T05:24:34.546Z,100643.00
2022-10-22T05:27:01.281Z,100640.00
2022-10-22T05:29:28.187Z,100642.00
2022-10-22T05:31:55.399Z,100645.00
2022-10-22T05:34:22.173Z,100643.00
2022-10-22T05:36:48.916Z,100651.00
2022-10-22T05:39:15.965Z,100647.00
2022-10-22T05:41:42.693Z,100648.00
2022-10-22T05:44:12.531Z,100647.00
2022-10-22T05:46:39.790Z,100650.00
2022-10-22T05:49:07.590Z,100662.00
2022-10-22T05:51:36.987Z,100666.00
2022-10-22T05:54:07.600Z,100660.00
2022-10-22T05:56:36.742Z,100670.00
2022-10-22T05:59:04.135Z,100679.00
2022-10-22T06:01:33.601Z,100677.00
2022-10-22T06:04:04.259Z,100677.00
2022-10-22T06:06:38.217Z,100675.00
2022-10-22T06:09:27.618Z,100666.00
2022-10-22T06:11:57.318Z,100655.00
2022-10-22T06:14:25.125Z,100666.00
2022-10-22T06:16:52.875Z,100664.00
2022-10-22T06:19:23.546Z,100670.00
2022-10-22T06:21:50.340Z,100671.00
2022-10-22T06:24:17.125Z,100668.00
2022-10-22T06:26:44.276Z,100675.00
2022-10-22T06:29:11.483Z,100687.00
2022-10-22T06:31:38.293Z,100694.00
2022-10-22T06:34:08.493Z,100693.00
2022-10-22T06:36:36.509Z,100700.00
2022-10-22T06:39:04.939Z,100703.00
2022-10-22T06:41:31.732Z,100707.00
2022-10-22T06:43:58.615Z,100699.00
2022-10-22T06:46:26.788Z,100706.00
2022-10-22T06:49:01.075Z,100719.00
2022-10-22T06:51:28.686Z,100719.00
2022-10-22T06:53:57.490Z,100717.00
2022-10-22T06:56:27.282Z,100723.00
2022-10-22T06:58:56.658Z,100726.00
2022-10-22T07:01:29.668Z,100726.00
2022-10-22T07:03:57.304Z,100717.00
2022-10-22T07:06:26.306Z,100713.00
2022-10-22T07:08:55.918Z,100722.00
2022-10-22T07:11:26.802Z,100711.00
2022-10-22T07:14:00.041Z,100724.00
2022-10-22T07:16:31.094Z,100732.00
2022-10-22T07:19:02.974Z,100712.00
2022-10-22T07:21:30.912Z,100727.00
2022-10-22T07:23:59.095Z,100729.00
2022-10-22T07:26:30.880Z,100728.00
2022-10-22T07:28:59.032Z,100742.00
2022-10-22T07:31:26.424Z,100736.00
2022-10-22T07:33:53.214Z,100730.00
2022-10-22T07:36:20.058Z,100734.00
2022-10-22T07:38:53.438Z,100737.00
2022-10-22T07:41:20.328Z,100751.00
2022-10-22T07:43:47.053Z,100757.00
2022-10-22T07:46:14.046Z,100771.00
2022-10-22T07:48:40.925Z,100773.00
2022-10-22T07:51:08.284Z,100783.00
2022-10-22T07:53:35.259Z,100786.00
2022-10-22T07:56:02.348Z,100777.00
2022-10-22T07:58:29.227Z,100784.00
2022-10-22T08:00:58.809Z,100774.00
2022-10-22T08:03:25.541Z,100775.00
2022-10-22T08:05:52.839Z,100785.00
2022-10-22T08:08:20.704Z,100783.00
2022-10-22T08:10:50.673Z,100791.00
2022-10-22T08:13:17.467Z,100790.00
2022-10-22T08:18:12.589Z,100788.00
2022-10-22T08:20:39.840Z,100791.00
2022-10-22T08:23:06.635Z,100787.00
2022-10-22T08:25:33.763Z,100790.00
2022-10-22T08:28:00.504Z,100793.00
2022-10-22T08:30:29.686Z,100791.00
2022-10-22T08:32:56.946Z,100798.00
2022-10-22T08:35:23.744Z,100795.00
2022-10-22T08:37:50.943Z,100803.00
2022-10-22T08:40:38.226Z,100811.00
2022-10-22T08:43:56.673Z,100820.00
2022-10-22T08:46:34.283Z,100813.00
2022-10-22T08:49:05.564Z,100812.00
2022-10-22T08:51:36.912Z,100814.00
2022-10-22T08:54:27.570Z,100821.00
2022-10-22T08:57:08.943Z,100824.00
2022-10-22T08:59:55.891Z,100822.00
2022-10-22T09:02:59.867Z,100821.00
2022-10-22T09:06:02.676Z,100833.00
2022-10-22T09:08:30.036Z,100835.00
2022-10-22T09:11:15.871Z,100836.00
2022-10-22T09:13:46.686Z,100839.00
2022-10-22T09:16:46.139Z,100831.00
2022-10-22T09:19:26.775Z,100833.00
2022-10-22T09:22:36.917Z,100839.00
2022-10-22T09:25:32.601Z,100844.00
2022-10-22T09:27:59.454Z,100839.00
2022-10-22T09:30:35.181Z,100848.00
2022-10-22T09:33:06.284Z,100832.00
2022-10-22T09:35:58.065Z,100838.00
2022-10-22T09:38:38.931Z,100850.00
2022-10-22T09:41:06.504Z,100850.00
2022-10-22T09:43:36.090Z,100847.00
2022-10-22T09:46:08.262Z,100859.00
2022-10-22T09:48:42.686Z,100864.00
2022-10-22T09:51:37.401Z,100860.00
2022-10-22T09:54:33.453Z,100867.00
2022-10-22T09:57:18.973Z,100857.00
2022-10-22T09:59:54.000Z,100864.00
2022-10-22T10:02:37.975Z,100868.00
2022-10-22T10:05:06.464Z,100860.00
2022-10-22T10:07:35.547Z,100863.00
2022-10-22T10:10:02.852Z,100853.00
2022-10-22T10:12:55.543Z,100869.00
2022-10-22T10:15:43.126Z,100866.00
2022-10-22T10:18:59.977Z,100865.00
2022-10-22T10:21:58.316Z,100873.00
2022-10-22T10:25:01.412Z,100868.00
2022-10-22T10:27:41.786Z,100872.00
2022-10-22T10:30:20.667Z,100870.00
2022-10-22T10:33:33.135Z,100874.00
2022-10-22T10:36:06.462Z,100866.00
2022-10-22T10:38:51.815Z,100866.00
2022-10-22T10:42:09.836Z,100862.00
2022-10-22T10:45:02.506Z,100867.00
2022-10-22T10:48:19.570Z,100863.00
2022-10-22T10:51:08.623Z,100869.00
2022-10-22T10:54:02.077Z,100862.00
2022-10-22T10:56:53.035Z,100856.00
2022-10-22T10:59:54.801Z,100866.00
2022-10-22T11:03:05.898Z,100875.00
2022-10-22T11:05:58.893Z,100879.00
2022-10-22T11:08:43.542Z,100874.00
2022-10-22T11:11:55.338Z,100871.00
2022-10-22T11:15:00.309Z,100868.00
2022-10-22T11:17:41.107Z,100870.00
2022-10-22T11:20:28.365Z,100875.00
2022-10-22T11:23:20.521Z,100871.00
2022-10-22T11:25:50.454Z,100873.00
2022-10-22T11:28:37.357Z,100867.00
2022-10-22T11:31:25.875Z,100870.00
2022-10-22T11:34:32.123Z,100870.00
2022-10-22T11:36:57.693Z,100868.00
2022-10-22T11:39:59.703Z,100878.00
2022-10-22T11:42:40.888Z,100873.00
2022-10-22T11:45:34.693Z,100879.00
2022-10-22T11:48:10.666Z,100882.00
2022-10-22T11:50:50.812Z,100879.00
2022-10-22T11:53:32.654Z,100877.00
2022-10-22T11:56:09.971Z,100876.00
2022-10-22T11:58:45.019Z,100874.00
2022-10-22T12:01:11.746Z,100873.00
2022-10-22T12:03:44.501Z,100867.00
2022-10-22T12:06:12.116Z,100872.00
2022-10-22T12:08:57.317Z,100871.00
2022-10-22T12:11:41.564Z,100873.00
2022-10-22T12:14:33.883Z,100873.00
2022-10-22T12:17:12.315Z,100874.00
2022-10-22T12:19:43.902Z,100874.00
2022-10-22T12:22:30.733Z,100878.00
2022-10-22T12:25:02.178Z,100884.00
2022-10-22T12:27:40.981Z,100874.00
2022-10-22T12:30:25.005Z,100881.00
2022-10-22T12:32:58.311Z,100877.00
2022-10-22T12:35:33.042Z,100872.00
2022-10-22T12:38:15.118Z,100878.00
2022-10-22T12:40:45.902Z,100878.00
2022-10-22T12:43:28.958Z,100876.00
2022-10-22T12:45:57.744Z,100867.00
2022-10-22T12:48:33.954Z,100876.00
2022-10-22T12:51:04.623Z,100879.00
2022-10-22T12:53:37.653Z,100871.00
2022-10-22T12:56:10.670Z,100872.00
2022-10-22T12:58:51.582Z,100874.00
2022-10-22T13:01:19.250Z,100876.00
2022-10-22T13:04:03.364Z,100870.00
2022-10-22T13:06:30.101Z,100882.00
2022-10-22T13:09:00.375Z,100874.00
2022-10-22T13:11:53.270Z,100879.00
2022-10-22T13:14:30.730Z,100860.00
2022-10-22T13:17:11.853Z,100880.00
2022-10-22T13:19:52.539Z,100878.00
2022-10-22T13:22:37.870Z,100883.00
2022-10-22T13:25:17.456Z,100884.00
2022-10-22T13:28:07.915Z,100884.00
2022-10-22T13:30:37.573Z,100880.00
2022-10-22T13:33:26.935Z,100880.00
2022-10-22T13:35:55.844Z,100882.00
2022-10-22T13:38:26.158Z,100882.00
2022-10-22T13:40:53.232Z,100885.00
2022-10-22T13:43:20.669Z,100890.00
2022-10-22T13:45:53.255Z,100882.00
2022-10-22T13:48:23.825Z,100885.00
2022-10-22T13:50:51.890Z,100883.00
2022-10-22T13:53:24.621Z,100897.00
2022-10-22T13:55:51.570Z,100889.00
2022-10-22T13:58:24.655Z,100894.00
2022-10-22T14:00:56.929Z,100893.00
2022-10-22T14:03:32.478Z,100899.00
2022-10-22T14:05:59.371Z,100907.00
2022-10-22T14:08:28.484Z,100909.00
2022-10-22T14:10:56.005Z,100904.00
2022-10-22T14:13:22.879Z,100909.00
2022-10-22T14:15:52.094Z,100905.00
2022-10-22T14:18:31.695Z,100905.00
2022-10-22T14:21:07.559Z,100911.00
2022-10-22T14:23:36.482Z,100914.00
2022-10-22T14:26:04.329Z,100912.00
2022-10-22T14:28:34.151Z,100907.00
2022-10-22T14:31:04.651Z,100912.00
2022-10-22T14:33:33.663Z,100914.00
2022-10-22T14:36:01.594Z,100926.00
2022-10-22T14:38:28.516Z,100922.00
2022-10-22T14:40:55.458Z,100923.00
2022-10-22T14:43:29.011Z,100920.00
2022-10-22T14:45:55.995Z,100915.00
2022-10-22T14:48:23.247Z,100923.00
2022-10-22T14:50:50.464Z,100927.00
2022-10-22T14:53:17.820Z,100927.00
2022-10-22T14:55:48.972Z,100925.00
2022-10-22T14:58:16.131Z,100919.00
2022-10-22T15:00:43.848Z,100929.00
2022-10-22T15:03:11.525Z,100938.00
2022-10-22T15:05:44.549Z,100930.00
2022-10-22T15:08:14.173Z,100929.00
2022-10-22T15:10:41.903Z,100933.00
2022-10-22T15:13:09.355Z,100936.00
2022-10-22T15:15:39.628Z,100942.00
2022-10-22T15:18:06.994Z,100935.00
2022-10-22T15:20:33.774Z,100933.00
2022-10-22T15:23:00.502Z,100932.00
2022-10-22T15:25:27.426Z,100941.00
2022-10-22T15:27:57.591Z,100929.00
2022-10-22T15:30:28.727Z,100943.00
2022-10-22T15:32:55.551Z,100950.00
2022-10-22T15:35:22.291Z,100949.00
2022-10-22T15:37:51.628Z,100953.00
2022-10-22T15:40:18.420Z,100963.00
2022-10-22T15:42:46.576Z,100961.00
2022-10-22T15:45:13.331Z,100957.00
2022-10-22T15:47:40.311Z,100951.00
2022-10-22T15:50:08.119Z,100955.00
2022-10-22T15:52:34.820Z,100959.00
2022-10-22T15:55:04.199Z,100961.00
2022-10-22T15:57:31.164Z,100956.00
2022-10-22T15:59:57.918Z,100956.00
2022-10-22T16:02:24.726Z,100961.00
2022-10-22T16:04:51.467Z,100957.00
2022-10-22T16:07:21.086Z,100956.00
2022-10-22T16:09:50.798Z,100960.00
2022-10-22T16:12:17.519Z,100957.00
2022-10-22T16:14:44.276Z,100968.00
2022-10-22T16:17:11.033Z,100957.00
2022-10-22T16:19:37.829Z,100965.00
2022-10-22T16:22:04.539Z,100969.00
2022-10-22T16:24:31.302Z,100969.00
2022-10-22T16:26:58.395Z,100971.00
2022-10-22T16:29:25.143Z,100973.00
2022-10-22T16:31:51.898Z,100982.00
2022-10-22T16:34:18.594Z,100978.00
2022-10-22T16:36:45.358Z,100979.00
2022-10-22T16:39:12.991Z,100985.00
2022-10-22T16:41:39.820Z,100988.00
2022-10-22T16:44:08.661Z,100984.00
2022-10-22T16:46:38.497Z,100990.00
2022-10-22T16:49:07.195Z,100978.00
2022-10-22T16:51:35.144Z,101006.00
2022-10-22T16:54:03.703Z,100997.00
2022-10-22T16:56:33.645Z,101001.00
2022-10-22T16:59:00.444Z,101003.00
2022-10-22T17:01:29.203Z,101005.00
2022-10-22T17:03:59.574Z,100999.00
2022-10-22T17:06:26.695Z,101009.00
2022-10-22T17:08:53.861Z,101013.00
2022-10-22T17:11:23.990Z,101014.00
2022-10-22T17:13:53.926Z,101021.00
2022-10-22T17:16:24.138Z,101030.00
2022-10-22T17:18:53.355Z,101033.00
2022-10-22T17:21:21.212Z,101029.00
2022-10-22T17:23:48.969Z,101038.00
2022-10-22T17:26:22.783Z,101031.00
2022-10-22T17:28:50.446Z,101035.00
2022-10-22T17:31:38.240Z,101036.00
2022-10-22T17:34:09.947Z,101040.00
2022-10-22T17:36:37.366Z,101044.00
2022-10-22T17:39:07.734Z,101051.00
2022-10-22T17:41:36.624Z,101052.00
2022-10-22T17:44:09.467Z,101052.00
2022-10-22T17:46:37.428Z,101055.00
2022-10-22T17:49:08.184Z,101058.00
2022-10-22T17:51:34.972Z,101056.00
2022-10-22T17:54:03.512Z,101060.00
2022-10-22T17:56:33.025Z,101058.00
2022-10-22T17:58:59.898Z,101066.00
2022-10-22T18:01:34.403Z,101060.00
2022-10-22T18:04:08.000Z,101058.00
2022-10-22T18:06:35.755Z,101067.00
2022-10-22T18:09:08.371Z,101060.00
2022-10-22T18:11:37.141Z,101063.00
2022-10-22T18:14:04.971Z,101064.00
2022-10-22T18:16:31.840Z,101073.00
2022-10-22T18:18:58.950Z,101070.00
2022-10-22T18:21:28.548Z,101069.00
2022-10-22T18:23:57.622Z,101071.00
2022-10-22T18:26:26.903Z,101078.00
2022-10-22T18:28:54.873Z,101073.00
2022-10-22T18:31:25.232Z,101071.00
2022-10-22T18:36:26.798Z,101075.00
2022-10-22T18:38:57.786Z,101064.00
2022-10-22T18:41:25.809Z,101072.00
2022-10-22T18:43:55.720Z,101074.00
2022-10-22T18:46:24.040Z,101070.00
2022-10-22T18:48:54.098Z,101075.00
2022-10-22T18:51:21.701Z,101068.00
2022-10-22T18:54:04.551Z,101083.00
2022-10-22T18:56:40.704Z,101078.00
2022-10-22T18:59:14.095Z,101070.00
2022-10-22T19:01:40.817Z,101071.00
2022-10-22T19:04:07.534Z,101073.00
2022-10-22T19:06:37.053Z,101072.00
2022-10-22T19:09:04.926Z,101072.00
2022-10-22T19:11:32.644Z,101071.00
2022-10-22T19:13:59.430Z,101078.00
2022-10-22T19:16:27.094Z,101084.00
2022-10-22T19:19:05.067Z,101083.00
2022-10-22T19:21:32.875Z,101083.00
2022-10-22T19:24:01.958Z,101080.00
2022-10-22T19:26:30.522Z,101092.00
2022-10-22T19:28:59.521Z,101092.00
2022-10-22T19:31:29.768Z,101104.00
2022-10-22T19:33:57.732Z,101091.00
2022-10-22T19:36:27.617Z,101089.00
2022-10-22T19:38:55.293Z,101100.00
2022-10-22T19:41:25.147Z,101106.00
2022-10-22T19:43:54.610Z,101112.00
2022-10-22T19:46:23.688Z,101115.00
2022-10-22T19:48:52.240Z,101111.00
2022-10-22T19:51:23.018Z,101115.00
2022-10-22T19:53:50.671Z,101126.00
2022-10-22T19:56:20.733Z,101129.00
2022-10-22T19:58:47.802Z,101131.00
2022-10-22T20:01:17.165Z,101123.00
2022-10-22T20:03:45.249Z,101128.00
2022-10-22T20:06:15.114Z,101125.00
2022-10-22T20:08:42.011Z,101127.00
2022-10-22T20:11:36.970Z,101132.00
2022-10-22T20:14:03.743Z,101135.00
2022-10-22T20:16:31.047Z,101134.00
2022-10-22T20:19:04.061Z,101144.00
2022-10-22T20:21:31.869Z,101156.00
2022-10-22T20:23:59.412Z,101148.00
2022-10-22T20:26:28.278Z,101141.00
2022-10-22T20:28:56.488Z,101150.00
2022-10-22T20:31:26.567Z,101151.00
2022-10-22T20:33:59.084Z,101151.00
2022-10-22T20:36:28.059Z,101152.00
2022-10-22T20:39:01.769Z,101153.00
2022-10-22T20:41:29.310Z,101161.00
2022-10-22T20:43:56.070Z,101164.00
2022-10-22T20:46:30.822Z,101165.00
2022-10-22T20:49:09.014Z,101166.00
2022-10-22T20:51:38.453Z,101175.00
2022-10-22T20:54:07.430Z,101173.00
2022-10-22T20:56:37.352Z,101174.00
2022-10-22T20:59:05.495Z,101183.00
2022-10-22T21:01:44.709Z,101179.00
2022-10-22T21:04:11.656Z,101170.00
2022-10-22T21:06:40.185Z,101180.00
2022-10-22T21:09:09.478Z,101181.00
2022-10-22T21:11:37.780Z,101181.00
2022-10-22T21:14:07.104Z,101180.00
2022-10-22T21:16:33.931Z,101187.00
2022-10-22T21:19:00.992Z,101187.00
2022-10-22T21:21:27.863Z,101194.00
2022-10-22T21:23:54.842Z,101187.00
2022-10-22T21:26:21.655Z,101188.00
2022-10-22T21:28:48.617Z,101190.00
2022-10-22T21:31:21.821Z,101194.00
2022-10-22T21:33:50.395Z,101190.00
2022-10-22T21:36:22.408Z,101194.00
2022-10-22T21:38:52.029Z,101195.00
2022-10-22T21:41:21.259Z,101201.00
2022-10-22T21:43:48.784Z,101204.00
2022-10-22T21:46:20.230Z,101202.00
2022-10-22T21:48:51.905Z,101213.00
2022-10-22T21:51:20.390Z,101217.00
2022-10-22T21:53:47.383Z,101212.00
2022-10-22T21:56:25.186Z,101213.00
2022-10-22T21:58:52.292Z,101223.00
2022-10-22T22:01:20.237Z,101213.00
2022-10-22T22:03:49.893Z,101205.00
2022-10-22T22:06:21.418Z,101211.00
2022-10-22T22:08:51.212Z,101205.00
2022-10-22T22:11:22.651Z,101213.00
2022-10-22T22:13:50.539Z,101212.00
2022-10-22T22:16:31.398Z,101208.00
2022-10-22T22:19:06.193Z,101201.00
2022-10-22T22:21:33.994Z,101192.00
2022-10-22T22:24:00.861Z,101201.00
2022-10-22T22:26:30.083Z,101203.00
2022-10-22T22:28:59.760Z,101198.00
2022-10-22T22:31:31.995Z,101200.00
2022-10-22T22:34:15.059Z,101196.00
2022-10-22T22:36:45.777Z,101205.00
2022-10-22T22:39:22.557Z,101199.00
2022-10-22T22:41:49.845Z,101195.00
2022-10-22T22:44:16.996Z,101189.00
2022-10-22T22:46:44.291Z,101188.00
2022-10-22T22:49:13.085Z,101192.00
2022-10-22T22:51:39.938Z,101188.00
2022-10-22T22:54:06.754Z,101197.00
2022-10-22T22:56:36.917Z,101197.00
2022-10-22T22:59:05.763Z,101193.00
2022-10-22T23:01:39.344Z,101190.00
2022-10-22T23:04:19.067Z,101190.00
2022-10-22T23:06:46.293Z,101200.00
2022-10-22T23:09:15.580Z,101197.00
2022-10-22T23:11:44.316Z,101196.00
2022-10-22T23:14:14.784Z,101203.00
2022-10-22T23:16:46.207Z,101200.00
2022-10-22T23:19:16.924Z,101198.00
2022-10-22T23:21:50.943Z,101211.00
2022-10-22T23:24:24.436Z,101216.00
2022-10-22T23:26:53.255Z,101210.00
2022-10-22T23:29:27.560Z,101219.00
2022-10-22T23:31:55.491Z,101217.00
2022-10-22T23:34:25.362Z,101220.00
2022-10-22T23:36:53.090Z,101214.00
2022-10-22T23:39:24.227Z,101211.00
2022-10-22T23:41:53.129Z,101204.00
2022-10-22T23:44:21.509Z,101208.00
2022-10-22T23:46:48.589Z,101213.00
2022-10-22T23:49:16.731Z,101208.00
2022-10-22T23:51:43.527Z,101215.00
2022-10-22T23:54:18.334Z,101204.00
2022-10-22T23:56:45.295Z,101208.00
